Time;durP1;ratioP1;P1;durP2;ratioP2;P2;SDS_P1;SDS_P2;PMS_P1;PMS_P2;Temp;Humidity;BMP_temperature;BMP_pressure;BME280_temperature;BME280_humidity;BME280_pressure;Samples;Min_cycle;Max_cycle;Signal;HPM_P1;HPM_P2
2024/03/27 00:01:34;;;;;;;9.02;4.40;;;;;;;;;;4980864;28;25099;-75
2024/03/27 00:04:00;;;;;;;7.82;4.47;;;;;;;;;;4978086;28;25113;-74
2024/03/27 00:06:26;;;;;;;10.05;4.38;;;;;;;;;;4987034;28;25060;-75
2024/03/27 00:08:52;;;;;;;4.57;4.03;;;;;;;;;;4980926;28;25066;-74
2024/03/27 00:11:20;;;;;;;9.07;4.32;;;;;;;;;;4980920;28;25063;-73
2024/03/27 00:13:46;;;;;;;10.15;5.13;;;;;;;;;;4981484;28;25087;-74
2024/03/27 00:16:12;;;;;;;5.90;3.92;;;;;;;;;;4988003;28;25061;-74
2024/03/27 00:18:38;;;;;;;5.57;3.90;;;;;;;;;;4981627;28;25062;-74
2024/03/27 00:21:04;;;;;;;8.07;3.85;;;;;;;;;;4982215;28;25085;-74
2024/03/27 00:23:30;;;;;;;7.65;4.10;;;;;;;;;;4986795;28;25058;-74
2024/03/27 00:25:57;;;;;;;5.80;3.88;;;;;;;;;;4991729;28;25047;-73
2024/03/27 00:28:23;;;;;;;8.52;3.30;;;;;;;;;;4978422;28;25082;-75
2024/03/27 00:30:49;;;;;;;8.35;3.58;;;;;;;;;;4988369;28;25082;-75
2024/03/27 00:33:15;;;;;;;5.82;3.40;;;;;;;;;;4986639;28;25117;-73
2024/03/27 00:35:42;;;;;;;8.75;3.50;;;;;;;;;;4988457;28;25070;-73
2024/03/27 00:38:08;;;;;;;7.25;4.05;;;;;;;;;;4981325;28;25079;-75
2024/03/27 00:40:34;;;;;;;5.13;3.00;;;;;;;;;;4985022;28;25072;-76
2024/03/27 00:43:00;;;;;;;6.75;3.17;;;;;;;;;;4986377;28;25059;-74
2024/03/27 00:45:26;;;;;;;7.95;3.60;;;;;;;;;;4986430;28;25080;-73
2024/03/27 00:47:52;;;;;;;7.80;3.67;;;;;;;;;;4979867;28;25086;-75
2024/03/27 00:50:18;;;;;;;7.75;3.78;;;;;;;;;;4981362;28;25077;-74
2024/03/27 00:52:46;;;;;;;4.45;3.10;;;;;;;;;;4979293;28;25055;-74
2024/03/27 00:55:12;;;;;;;6.78;3.63;;;;;;;;;;4984605;28;25076;-75
2024/03/27 00:57:38;;;;;;;7.53;3.53;;;;;;;;;;4978595;28;25060;-73
2024/03/27 01:00:04;;;;;;;4.22;2.95;;;;;;;;;;4973272;28;25085;-73
2024/03/27 01:02:30;;;;;;;7.47;3.30;;;;;;;;;;4978879;28;25073;-74
2024/03/27 01:04:56;;;;;;;5.82;3.70;;;;;;;;;;4976433;28;25067;-74
2024/03/27 01:07:22;;;;;;;5.22;3.05;;;;;;;;;;4973996;28;25082;-75
2024/03/27 01:09:48;;;;;;;11.05;3.63;;;;;;;;;;4985675;28;25057;-74
2024/03/27 01:12:14;;;;;;;5.28;2.80;;;;;;;;;;4974267;28;25089;-72
2024/03/27 01:14:41;;;;;;;4.95;3.00;;;;;;;;;;4983878;28;25048;-75
2024/03/27 01:17:07;;;;;;;5.00;2.78;;;;;;;;;;4984815;28;25077;-73
2024/03/27 01:19:33;;;;;;;4.20;2.92;;;;;;;;;;4980470;28;25059;-73
2024/03/27 01:21:59;;;;;;;6.35;3.50;;;;;;;;;;4981069;28;25098;-73
2024/03/27 01:24:24;;;;;;;4.75;3.13;;;;;;;;;;4976737;28;25095;-72
2024/03/27 01:26:52;;;;;;;7.72;2.95;;;;;;;;;;4974426;28;25071;-73
2024/03/27 01:29:18;;;;;;;3.08;2.78;;;;;;;;;;4979245;28;25261;-73
2024/03/27 01:31:44;;;;;;;10.93;3.35;;;;;;;;;;4979613;28;25064;-74
2024/03/27 01:34:10;;;;;;;8.38;3.45;;;;;;;;;;4982323;28;25065;-74
2024/03/27 01:36:35;;;;;;;6.57;3.55;;;;;;;;;;4991962;28;25097;-73
2024/03/27 01:39:02;;;;;;;6.50;3.50;;;;;;;;;;4977473;28;25067;-73
2024/03/27 01:41:28;;;;;;;4.25;3.08;;;;;;;;;;4978450;28;25065;-73
2024/03/27 01:43:54;;;;;;;6.43;3.38;;;;;;;;;;4971719;28;25048;-73
2024/03/27 01:46:23;;;;;;;4.40;3.10;;;;;;;;;;4982237;28;25082;-73
2024/03/27 01:48:49;;;;;;;6.30;3.50;;;;;;;;;;4978628;28;25086;-72
2024/03/27 01:51:15;;;;;;;5.53;3.42;;;;;;;;;;4973512;28;25536;-72
2024/03/27 01:53:41;;;;;;;3.97;3.20;;;;;;;;;;4976261;28;25106;-72
2024/03/27 01:56:07;;;;;;;6.03;3.13;;;;;;;;;;4982692;28;25080;-72
2024/03/27 01:58:33;;;;;;;4.70;2.65;;;;;;;;;;4981826;28;25066;-73
2024/03/27 02:01:00;;;;;;;4.38;3.08;;;;;;;;;;4999349;28;25066;-72
2024/03/27 02:03:26;;;;;;;3.40;2.50;;;;;;;;;;4987612;28;25065;-73
2024/03/27 02:05:52;;;;;;;7.22;3.05;;;;;;;;;;5002036;28;25083;-72
2024/03/27 02:08:18;;;;;;;6.00;3.30;;;;;;;;;;4979311;28;25081;-73
2024/03/27 02:10:44;;;;;;;6.85;3.08;;;;;;;;;;4982579;28;25055;-73
2024/03/27 02:13:10;;;;;;;5.88;3.17;;;;;;;;;;4983924;28;25056;-72
2024/03/27 02:15:35;;;;;;;4.28;2.85;;;;;;;;;;4979346;28;25075;-73
2024/03/27 02:18:01;;;;;;;4.85;3.17;;;;;;;;;;4971668;28;25066;-73
2024/03/27 02:20:27;;;;;;;8.63;3.75;;;;;;;;;;4982549;28;25049;-73
2024/03/27 02:22:55;;;;;;;4.43;2.85;;;;;;;;;;4974727;28;25110;-71
2024/03/27 02:25:23;;;;;;;4.70;2.80;;;;;;;;;;4983697;28;25075;-72
2024/03/27 02:27:49;;;;;;;5.75;2.80;;;;;;;;;;4989029;28;25132;-73
2024/03/27 02:30:15;;;;;;;5.15;2.83;;;;;;;;;;5001094;28;25095;-73
2024/03/27 02:32:41;;;;;;;5.63;3.20;;;;;;;;;;4987000;28;25058;-74
2024/03/27 02:35:11;;;;;;;3.08;2.70;;;;;;;;;;4994331;28;25084;-73
2024/03/27 02:37:37;;;;;;;6.45;2.90;;;;;;;;;;4979346;28;25092;-73
2024/03/27 02:40:05;;;;;;;3.20;2.90;;;;;;;;;;4978816;28;25065;-73
2024/03/27 02:42:31;;;;;;;4.38;3.05;;;;;;;;;;4982963;28;25044;-73
2024/03/27 02:44:57;;;;;;;3.55;3.13;;;;;;;;;;4987078;28;25057;-73
2024/03/27 02:47:23;;;;;;;6.32;2.90;;;;;;;;;;4976185;28;25072;-73
2024/03/27 02:49:49;;;;;;;5.40;3.15;;;;;;;;;;4982601;28;25079;-73
2024/03/27 02:52:15;;;;;;;4.13;2.60;;;;;;;;;;4983129;28;25083;-73
2024/03/27 02:54:41;;;;;;;7.80;3.15;;;;;;;;;;4990634;28;25078;-74
2024/03/27 02:57:07;;;;;;;3.95;3.10;;;;;;;;;;4982883;28;25108;-74
2024/03/27 02:59:33;;;;;;;3.63;3.05;;;;;;;;;;4988497;28;25061;-73
2024/03/27 03:01:59;;;;;;;2.75;2.55;;;;;;;;;;4996749;28;25099;-72
2024/03/27 03:04:25;;;;;;;5.28;3.03;;;;;;;;;;4986777;28;25068;-73
2024/03/27 03:06:51;;;;;;;5.90;2.97;;;;;;;;;;4977568;28;25086;-74
2024/03/27 03:09:18;;;;;;;3.30;3.05;;;;;;;;;;4985549;28;25131;-72
2024/03/27 03:11:44;;;;;;;10.52;3.20;;;;;;;;;;4989724;28;25080;-73
2024/03/27 03:14:10;;;;;;;3.65;3.20;;;;;;;;;;4982414;28;25060;-73
2024/03/27 03:16:36;;;;;;;3.28;2.90;;;;;;;;;;4979987;28;25070;-73
2024/03/27 03:19:02;;;;;;;3.50;3.15;;;;;;;;;;4980639;28;25079;-73
2024/03/27 03:21:28;;;;;;;2.92;2.63;;;;;;;;;;4988350;28;25052;-75
2024/03/27 03:23:54;;;;;;;4.15;2.55;;;;;;;;;;4988814;28;25105;-72
2024/03/27 03:26:20;;;;;;;3.03;2.63;;;;;;;;;;4983079;28;25072;-74
2024/03/27 03:28:46;;;;;;;3.17;2.92;;;;;;;;;;4988151;28;25085;-74
2024/03/27 03:31:17;;;;;;;4.65;3.30;;;;;;;;;;4975972;28;25068;-73
2024/03/27 03:33:42;;;;;;;5.25;3.35;;;;;;;;;;4988400;28;25081;-73
2024/03/27 03:36:08;;;;;;;3.25;2.95;;;;;;;;;;4989335;28;25078;-74
2024/03/27 03:38:34;;;;;;;3.92;3.00;;;;;;;;;;4985770;28;25064;-74
2024/03/27 03:41:02;;;;;;;4.25;3.00;;;;;;;;;;4980810;28;25073;-75
2024/03/27 03:43:28;;;;;;;4.88;2.83;;;;;;;;;;4975528;28;25090;-73
2024/03/27 03:45:54;;;;;;;3.28;2.83;;;;;;;;;;4981328;28;25091;-74
2024/03/27 03:48:23;;;;;;;4.07;2.72;;;;;;;;;;4979947;28;25060;-74
2024/03/27 03:50:49;;;;;;;3.85;3.50;;;;;;;;;;4981467;28;25096;-74
2024/03/27 03:53:15;;;;;;;3.78;3.38;;;;;;;;;;4987125;28;25065;-73
2024/03/27 03:55:42;;;;;;;5.28;3.70;;;;;;;;;;4981898;28;25089;-74
2024/03/27 03:58:08;;;;;;;8.27;4.15;;;;;;;;;;4974176;28;25074;-72
2024/03/27 04:00:34;;;;;;;5.35;4.53;;;;;;;;;;4979442;28;25066;-73
2024/03/27 04:03:00;;;;;;;6.70;4.95;;;;;;;;;;4981772;28;25139;-73
2024/03/27 04:05:26;;;;;;;8.10;5.38;;;;;;;;;;4993690;28;25097;-73
2024/03/27 04:07:52;;;;;;;14.93;6.38;;;;;;;;;;4985895;28;25080;-73
2024/03/27 04:10:18;;;;;;;10.30;6.88;;;;;;;;;;4985297;28;25077;-72
2024/03/27 04:12:44;;;;;;;14.63;7.15;;;;;;;;;;4977686;28;25114;-72
2024/03/27 04:15:10;;;;;;;18.48;6.85;;;;;;;;;;4990214;28;25077;-73
2024/03/27 04:17:36;;;;;;;12.60;6.95;;;;;;;;;;4986619;28;25078;-72
2024/03/27 04:20:10;;;;;;;15.95;8.23;;;;;;;;;;4980773;28;25073;-73
2024/03/27 04:22:36;;;;;;;14.43;7.38;;;;;;;;;;4985520;28;25050;-71
2024/03/27 04:25:03;;;;;;;16.63;7.97;;;;;;;;;;4983170;28;25070;-72
2024/03/27 04:27:29;;;;;;;11.95;7.20;;;;;;;;;;4989110;28;25112;-72
2024/03/27 04:29:56;;;;;;;11.27;6.70;;;;;;;;;;4982054;28;25058;-73
2024/03/27 04:32:22;;;;;;;15.52;8.13;;;;;;;;;;4987704;28;25087;-72
2024/03/27 04:34:48;;;;;;;10.00;7.30;;;;;;;;;;4985763;28;25065;-73
2024/03/27 04:37:14;;;;;;;15.40;8.23;;;;;;;;;;4977295;28;25083;-75
2024/03/27 04:39:40;;;;;;;14.38;7.28;;;;;;;;;;4983369;28;25077;-74
2024/03/27 04:42:10;;;;;;;11.85;7.43;;;;;;;;;;4981773;28;25057;-74
2024/03/27 04:44:36;;;;;;;14.70;7.30;;;;;;;;;;4983757;28;25043;-75
2024/03/27 04:47:03;;;;;;;14.93;7.75;;;;;;;;;;4984067;28;25057;-72
2024/03/27 04:49:29;;;;;;;12.85;7.68;;;;;;;;;;4981512;28;25089;-73
2024/03/27 04:51:55;;;;;;;14.82;7.90;;;;;;;;;;4984185;28;25045;-73
2024/03/27 04:54:22;;;;;;;15.55;7.55;;;;;;;;;;4996335;28;25058;-74
2024/03/27 04:56:48;;;;;;;15.70;8.80;;;;;;;;;;4976418;28;25097;-71
2024/03/27 04:59:14;;;;;;;15.73;9.25;;;;;;;;;;4979684;28;25063;-72
2024/03/27 05:01:40;;;;;;;16.05;9.10;;;;;;;;;;4989321;28;25079;-74
2024/03/27 05:04:06;;;;;;;19.05;12.05;;;;;;;;;;4984179;28;25080;-73
2024/03/27 05:06:38;;;;;;;18.25;12.55;;;;;;;;;;4986663;28;25065;-74
2024/03/27 05:09:09;;;;;;;18.92;12.77;;;;;;;;;;4983539;28;25082;-73
2024/03/27 05:11:35;;;;;;;16.00;12.10;;;;;;;;;;4986590;28;25077;-74
2024/03/27 05:14:01;;;;;;;16.10;12.82;;;;;;;;;;4978939;28;25102;-72
2024/03/27 05:16:27;;;;;;;22.20;12.90;;;;;;;;;;4979994;28;25074;-71
2024/03/27 05:18:53;;;;;;;15.57;12.63;;;;;;;;;;4971507;28;25062;-73
2024/03/27 05:21:19;;;;;;;17.35;12.35;;;;;;;;;;4972028;28;25065;-72
2024/03/27 05:23:46;;;;;;;17.02;12.85;;;;;;;;;;4969523;28;25050;-73
2024/03/27 05:26:12;;;;;;;19.77;11.82;;;;;;;;;;4974240;28;25062;-71
2024/03/27 05:28:39;;;;;;;14.90;12.02;;;;;;;;;;4977487;28;25066;-72
2024/03/27 05:31:05;;;;;;;15.35;11.85;;;;;;;;;;4977694;28;25105;-74
2024/03/27 05:33:31;;;;;;;17.33;11.40;;;;;;;;;;4971099;28;25053;-75
2024/03/27 05:35:57;;;;;;;14.93;11.70;;;;;;;;;;4977770;28;25152;-74
2024/03/27 05:38:23;;;;;;;13.20;10.18;;;;;;;;;;4995300;28;25090;-72
2024/03/27 05:40:49;;;;;;;17.33;10.90;;;;;;;;;;4948033;28;1067879;-75
2024/03/27 05:43:15;;;;;;;17.23;10.40;;;;;;;;;;4970123;28;25078;-73
2024/03/27 05:45:41;;;;;;;13.75;10.07;;;;;;;;;;4983326;28;25078;-75
2024/03/27 05:48:08;;;;;;;20.67;10.35;;;;;;;;;;4983042;28;25075;-75
2024/03/27 05:50:34;;;;;;;13.02;8.63;;;;;;;;;;4982699;28;25060;-74
2024/03/27 05:53:00;;;;;;;18.27;8.13;;;;;;;;;;4989444;28;25064;-74
2024/03/27 05:55:27;;;;;;;13.63;7.82;;;;;;;;;;4979067;28;25080;-76
2024/03/27 05:57:54;;;;;;;9.68;7.22;;;;;;;;;;4982648;28;25072;-75
2024/03/27 06:00:20;;;;;;;8.82;6.20;;;;;;;;;;4984088;28;25082;-75
2024/03/27 06:02:46;;;;;;;8.65;6.28;;;;;;;;;;4988044;28;25081;-74
2024/03/27 06:05:13;;;;;;;10.52;4.90;;;;;;;;;;4993061;28;25048;-75
2024/03/27 06:07:39;;;;;;;8.80;4.85;;;;;;;;;;4986739;28;25087;-74
2024/03/27 06:10:06;;;;;;;7.03;4.65;;;;;;;;;;4986959;28;25059;-75
2024/03/27 06:12:32;;;;;;;6.65;4.45;;;;;;;;;;4982786;28;25100;-75
2024/03/27 06:14:58;;;;;;;10.05;4.65;;;;;;;;;;4982019;28;25056;-75
2024/03/27 06:17:24;;;;;;;7.30;5.15;;;;;;;;;;4989060;28;25079;-76
2024/03/27 06:19:50;;;;;;;10.88;5.13;;;;;;;;;;4992275;28;25061;-75
2024/03/27 06:22:16;;;;;;;8.82;6.50;;;;;;;;;;4990202;28;25061;-75
2024/03/27 06:24:42;;;;;;;18.02;6.53;;;;;;;;;;4987568;28;25057;-77
2024/03/27 06:27:08;;;;;;;10.73;6.38;;;;;;;;;;4991525;28;25089;-75
2024/03/27 06:29:34;;;;;;;14.15;7.13;;;;;;;;;;4992650;28;25079;-75
2024/03/27 06:32:00;;;;;;;10.38;5.88;;;;;;;;;;4995392;28;25074;-75
2024/03/27 06:34:26;;;;;;;11.52;6.28;;;;;;;;;;4993539;28;25071;-74
2024/03/27 06:36:52;;;;;;;7.93;5.95;;;;;;;;;;4992000;28;25050;-75
2024/03/27 06:39:18;;;;;;;11.40;6.65;;;;;;;;;;4995909;28;25070;-75
2024/03/27 06:41:44;;;;;;;11.80;6.13;;;;;;;;;;4996044;28;25063;-74
2024/03/27 06:44:10;;;;;;;11.65;6.38;;;;;;;;;;4983797;28;25083;-75
2024/03/27 06:46:36;;;;;;;18.10;6.95;;;;;;;;;;4992146;28;25070;-77
2024/03/27 06:49:18;;;;;;;13.50;7.03;;;;;;;;;;4991819;28;25074;-74
2024/03/27 06:51:51;;;;;;;12.27;6.95;;;;;;;;;;4994730;28;25073;-75
2024/03/27 06:54:17;;;;;;;9.32;6.97;;;;;;;;;;4986760;28;25083;-76
2024/03/27 06:56:44;;;;;;;10.02;7.78;;;;;;;;;;4990356;28;25062;-76
2024/03/27 06:59:11;;;;;;;11.05;8.02;;;;;;;;;;4992545;28;25082;-74
2024/03/27 07:01:37;;;;;;;9.45;8.38;;;;;;;;;;4996017;28;25068;-73
2024/03/27 07:04:03;;;;;;;12.38;8.07;;;;;;;;;;4996907;28;25095;-74
2024/03/27 07:06:29;;;;;;;11.70;8.10;;;;;;;;;;4990970;28;25056;-74
2024/03/27 07:08:55;;;;;;;8.82;7.93;;;;;;;;;;4985935;28;25070;-75
2024/03/27 07:11:21;;;;;;;11.55;8.70;;;;;;;;;;4980942;28;25131;-75
2024/03/27 07:13:47;;;;;;;13.82;9.30;;;;;;;;;;4982124;28;25061;-76
2024/03/27 07:16:13;;;;;;;14.13;8.95;;;;;;;;;;4982821;28;25056;-77
2024/03/27 07:18:39;;;;;;;17.33;9.10;;;;;;;;;;4980616;28;25111;-76
2024/03/27 07:21:05;;;;;;;23.02;10.65;;;;;;;;;;4986631;28;25055;-75
2024/03/27 07:23:31;;;;;;;17.55;7.90;;;;;;;;;;4990406;28;25076;-73
2024/03/27 07:25:57;;;;;;;38.58;12.00;;;;;;;;;;4985571;28;25090;-74
2024/03/27 07:28:23;;;;;;;10.02;7.78;;;;;;;;;;4984000;28;25129;-75
2024/03/27 07:30:50;;;;;;;13.18;7.70;;;;;;;;;;4993751;28;25371;-75
2024/03/27 07:33:16;;;;;;;10.95;7.80;;;;;;;;;;4981352;28;25051;-74
2024/03/27 07:35:42;;;;;;;9.55;8.55;;;;;;;;;;4986538;28;25072;-74
2024/03/27 07:38:08;;;;;;;10.25;7.78;;;;;;;;;;4990027;28;25065;-74
2024/03/27 07:40:35;;;;;;;11.30;8.20;;;;;;;;;;4986154;28;25083;-74
2024/03/27 07:43:02;;;;;;;15.35;8.23;;;;;;;;;;4983438;28;25064;-74
2024/03/27 07:45:28;;;;;;;10.85;7.22;;;;;;;;;;4976960;28;25064;-72
2024/03/27 07:47:54;;;;;;;12.93;9.07;;;;;;;;;;4976714;28;25065;-75
2024/03/27 07:50:20;;;;;;;11.32;9.02;;;;;;;;;;4981240;28;25066;-75
2024/03/27 07:52:46;;;;;;;14.85;10.10;;;;;;;;;;4974968;28;25060;-74
2024/03/27 07:55:12;;;;;;;15.93;10.82;;;;;;;;;;4968364;28;25111;-75
2024/03/27 07:57:38;;;;;;;13.93;10.55;;;;;;;;;;4958218;28;25052;-73
2024/03/27 08:00:04;;;;;;;11.15;9.45;;;;;;;;;;4974191;28;25151;-76
2024/03/27 08:02:30;;;;;;;14.43;9.93;;;;;;;;;;4975091;28;25082;-75
2024/03/27 08:04:58;;;;;;;17.27;10.60;;;;;;;;;;4963184;28;25063;-76
2024/03/27 08:07:24;;;;;;;13.60;9.20;;;;;;;;;;4962294;28;25068;-78
2024/03/27 08:09:51;;;;;;;11.35;9.43;;;;;;;;;;4964380;28;25049;-76
2024/03/27 08:12:17;;;;;;;10.40;8.48;;;;;;;;;;4968521;28;25056;-76
2024/03/27 08:14:44;;;;;;;13.73;7.90;;;;;;;;;;4962337;28;25129;-79
2024/03/27 08:17:10;;;;;;;12.25;8.45;;;;;;;;;;4964843;28;25146;-74
2024/03/27 08:19:40;;;;;;;9.75;7.63;;;;;;;;;;4967694;28;25068;-76
2024/03/27 08:22:06;;;;;;;15.32;8.70;;;;;;;;;;4969642;28;25152;-76
2024/03/27 08:24:32;;;;;;;11.23;7.35;;;;;;;;;;4963909;28;25084;-75
2024/03/27 08:26:58;;;;;;;8.02;7.00;;;;;;;;;;4967483;28;25079;-78
2024/03/27 08:29:24;;;;;;;9.10;7.53;;;;;;;;;;4967479;28;25072;-76
2024/03/27 08:31:50;;;;;;;8.13;7.32;;;;;;;;;;4965038;28;25054;-77
2024/03/27 08:34:16;;;;;;;10.43;7.43;;;;;;;;;;4958901;28;25079;-75
2024/03/27 08:36:42;;;;;;;13.95;7.75;;;;;;;;;;4960984;28;25093;-77
2024/03/27 08:39:09;;;;;;;7.65;6.30;;;;;;;;;;4961997;28;25078;-75
2024/03/27 08:41:36;;;;;;;9.20;7.07;;;;;;;;;;4984676;28;25056;-77
2024/03/27 08:44:03;;;;;;;10.93;7.53;;;;;;;;;;4973753;28;25120;-77
2024/03/27 08:46:29;;;;;;;6.82;6.10;;;;;;;;;;4961150;28;25146;-77
2024/03/27 08:48:55;;;;;;;7.10;5.93;;;;;;;;;;4976794;28;25150;-76
2024/03/27 08:51:25;;;;;;;10.25;5.13;;;;;;;;;;4968877;28;25047;-75
2024/03/27 08:53:51;;;;;;;7.15;4.88;;;;;;;;;;4962941;28;25070;-77
2024/03/27 08:56:18;;;;;;;7.68;4.72;;;;;;;;;;4966427;28;25161;-75
2024/03/27 08:58:44;;;;;;;7.63;4.65;;;;;;;;;;4973175;28;25095;-76
2024/03/27 09:01:14;;;;;;;9.48;6.55;;;;;;;;;;4964964;28;25059;-77
2024/03/27 09:03:40;;;;;;;8.63;5.10;;;;;;;;;;4964908;28;25119;-76
2024/03/27 09:06:07;;;;;;;6.18;4.78;;;;;;;;;;4966980;28;25140;-76
2024/03/27 09:08:36;;;;;;;6.05;4.60;;;;;;;;;;4964610;28;25154;-76
2024/03/27 09:11:02;;;;;;;5.82;3.83;;;;;;;;;;4970711;28;25051;-77
2024/03/27 09:13:28;;;;;;;5.05;4.00;;;;;;;;;;4965865;28;25094;-77
2024/03/27 09:16:06;;;;;;;9.48;3.67;;;;;;;;;;4966765;28;25086;-77
2024/03/27 09:18:34;;;;;;;4.47;3.83;;;;;;;;;;4969175;28;25067;-76
2024/03/27 09:21:00;;;;;;;4.60;3.67;;;;;;;;;;4969399;28;25073;-76
2024/03/27 09:23:26;;;;;;;7.13;3.45;;;;;;;;;;4965115;28;25089;-79
2024/03/27 09:25:53;;;;;;;3.90;3.50;;;;;;;;;;4965829;28;25066;-77
2024/03/27 09:28:20;;;;;;;8.23;4.43;;;;;;;;;;4975187;28;25144;-78
2024/03/27 09:30:46;;;;;;;4.80;3.72;;;;;;;;;;4972526;28;25061;-76
2024/03/27 09:33:12;;;;;;;4.18;3.80;;;;;;;;;;4973875;28;25152;-76
2024/03/27 09:35:38;;;;;;;4.15;3.13;;;;;;;;;;4971368;28;25096;-78
2024/03/27 09:38:06;;;;;;;5.78;3.75;;;;;;;;;;4961888;28;25080;-76
2024/03/27 09:40:33;;;;;;;7.75;3.38;;;;;;;;;;4964145;28;25051;-78
2024/03/27 09:43:01;;;;;;;5.63;3.17;;;;;;;;;;4969320;28;25106;-76
2024/03/27 09:45:27;;;;;;;4.40;3.30;;;;;;;;;;4966213;28;25097;-74
2024/03/27 09:47:53;;;;;;;5.55;3.35;;;;;;;;;;4961545;28;25073;-76
2024/03/27 09:50:20;;;;;;;6.38;3.55;;;;;;;;;;4966593;28;25086;-76
2024/03/27 09:52:46;;;;;;;4.35;3.13;;;;;;;;;;4966414;28;25069;-76
2024/03/27 09:55:12;;;;;;;3.70;3.08;;;;;;;;;;4967272;28;25072;-77
2024/03/27 09:57:39;;;;;;;5.10;3.55;;;;;;;;;;4967189;28;25077;-77
2024/03/27 10:00:07;;;;;;;5.75;3.70;;;;;;;;;;4969014;28;25069;-76
2024/03/27 10:02:33;;;;;;;4.32;3.30;;;;;;;;;;4965363;28;25139;-76
2024/03/27 10:04:59;;;;;;;5.63;2.90;;;;;;;;;;4964325;28;25056;-74
2024/03/27 10:07:25;;;;;;;5.38;2.85;;;;;;;;;;4959004;28;25137;-77
2024/03/27 10:09:52;;;;;;;5.53;2.92;;;;;;;;;;4963185;28;25177;-76
2024/03/27 10:12:18;;;;;;;5.95;3.03;;;;;;;;;;4960053;28;25068;-76
2024/03/27 10:14:44;;;;;;;3.97;3.15;;;;;;;;;;4970539;28;25110;-76
2024/03/27 10:17:10;;;;;;;6.45;3.20;;;;;;;;;;4969091;28;25155;-77
2024/03/27 10:19:36;;;;;;;4.55;3.40;;;;;;;;;;4981530;28;25067;-76
2024/03/27 10:22:02;;;;;;;5.43;3.53;;;;;;;;;;4970778;28;25155;-77
2024/03/27 10:24:28;;;;;;;4.25;3.38;;;;;;;;;;4971527;28;25126;-78
2024/03/27 10:26:55;;;;;;;3.55;3.10;;;;;;;;;;4983279;28;25096;-77
2024/03/27 10:29:20;;;;;;;5.57;3.40;;;;;;;;;;4978829;28;25065;-77
2024/03/27 10:31:46;;;;;;;5.53;3.50;;;;;;;;;;4976730;28;25071;-76
2024/03/27 10:34:13;;;;;;;8.35;4.15;;;;;;;;;;4971396;28;25110;-77
2024/03/27 10:36:40;;;;;;;7.50;4.18;;;;;;;;;;4977680;28;25071;-76
2024/03/27 10:39:11;;;;;;;5.10;4.10;;;;;;;;;;4974810;28;25153;-77
2024/03/27 10:41:38;;;;;;;4.20;3.80;;;;;;;;;;4974610;28;25147;-77
2024/03/27 10:44:05;;;;;;;7.10;4.43;;;;;;;;;;4970357;28;25108;-75
2024/03/27 10:46:32;;;;;;;6.75;3.80;;;;;;;;;;4967132;28;25079;-76
2024/03/27 10:48:59;;;;;;;6.13;4.20;;;;;;;;;;4987051;28;25075;-76
2024/03/27 10:51:25;;;;;;;5.38;4.88;;;;;;;;;;4975175;28;25080;-77
2024/03/27 10:53:52;;;;;;;7.25;4.95;;;;;;;;;;4974976;28;25081;-77
2024/03/27 10:56:18;;;;;;;5.88;4.78;;;;;;;;;;4971883;28;25448;-76
2024/03/27 10:58:44;;;;;;;5.40;4.25;;;;;;;;;;4970228;28;25086;-76
2024/03/27 11:01:10;;;;;;;9.65;5.97;;;;;;;;;;4978242;28;25063;-77
2024/03/27 11:03:39;;;;;;;8.80;5.65;;;;;;;;;;4982910;28;25057;-76
2024/03/27 11:06:08;;;;;;;6.88;5.68;;;;;;;;;;4973332;28;25066;-76
2024/03/27 11:08:37;;;;;;;12.50;6.78;;;;;;;;;;4975870;28;25072;-76
2024/03/27 11:11:04;;;;;;;9.80;6.50;;;;;;;;;;4970360;28;25108;-76
2024/03/27 11:13:30;;;;;;;12.18;7.60;;;;;;;;;;4970197;28;25136;-76
2024/03/27 11:15:56;;;;;;;9.50;6.10;;;;;;;;;;4977840;28;25057;-77
2024/03/27 11:18:28;;;;;;;8.57;6.78;;;;;;;;;;4968081;28;25073;-78
2024/03/27 11:20:55;;;;;;;9.03;7.43;;;;;;;;;;4970884;28;25069;-76
2024/03/27 11:23:34;;;;;;;12.13;6.88;;;;;;;;;;4969679;28;25050;-78
2024/03/27 11:26:03;;;;;;;12.38;7.45;;;;;;;;;;4969930;28;25102;-76
2024/03/27 11:28:29;;;;;;;12.15;7.05;;;;;;;;;;4973537;28;25084;-77
2024/03/27 11:30:56;;;;;;;7.13;6.32;;;;;;;;;;4970262;28;25066;-76
2024/03/27 11:33:24;;;;;;;7.40;6.25;;;;;;;;;;4965526;28;25092;-74
2024/03/27 11:35:50;;;;;;;6.95;6.03;;;;;;;;;;4969746;28;25177;-77
2024/03/27 11:38:20;;;;;;;9.88;6.07;;;;;;;;;;4967097;28;25059;-76
2024/03/27 11:40:49;;;;;;;9.50;6.97;;;;;;;;;;4969034;28;25066;-77
2024/03/27 11:43:15;;;;;;;8.95;6.18;;;;;;;;;;4964594;28;25054;-77
2024/03/27 11:45:41;;;;;;;7.68;5.65;;;;;;;;;;4969415;28;25076;-75
2024/03/27 11:48:08;;;;;;;8.93;5.25;;;;;;;;;;4979954;28;25108;-76
2024/03/27 11:50:34;;;;;;;6.70;5.55;;;;;;;;;;4974184;28;25070;-76
2024/03/27 11:53:01;;;;;;;5.25;4.63;;;;;;;;;;4982034;28;25060;-77
2024/03/27 11:55:27;;;;;;;8.82;5.50;;;;;;;;;;4974937;28;25088;-76
2024/03/27 11:57:53;;;;;;;5.65;4.85;;;;;;;;;;4977765;28;25066;-76
2024/03/27 12:00:19;;;;;;;5.30;4.80;;;;;;;;;;4972252;28;25081;-76
2024/03/27 12:02:45;;;;;;;7.40;4.68;;;;;;;;;;4983925;28;25093;-78
2024/03/27 12:05:11;;;;;;;7.28;4.13;;;;;;;;;;4973265;28;25077;-78
2024/03/27 12:07:37;;;;;;;8.68;4.22;;;;;;;;;;4975964;28;25072;-77
2024/03/27 12:10:03;;;;;;;5.85;3.80;;;;;;;;;;4974606;28;25096;-77
2024/03/27 12:12:30;;;;;;;4.85;3.45;;;;;;;;;;4972628;28;25191;-75
2024/03/27 12:14:57;;;;;;;5.75;4.13;;;;;;;;;;4973229;28;25057;-77
2024/03/27 12:17:30;;;;;;;4.47;3.78;;;;;;;;;;4973438;28;25073;-78
2024/03/27 12:19:56;;;;;;;8.32;3.80;;;;;;;;;;4967463;28;25178;-76
2024/03/27 12:22:25;;;;;;;4.90;3.42;;;;;;;;;;4973931;28;25082;-77
2024/03/27 12:24:51;;;;;;;3.85;3.38;;;;;;;;;;4974372;28;25076;-77
2024/03/27 12:27:23;;;;;;;9.57;4.25;;;;;;;;;;4973209;28;25111;-78
2024/03/27 12:29:49;;;;;;;;;;;;;;;;;;4973120;28;25059;-77
2024/03/27 12:32:18;;;;;;;7.57;4.10;;;;;;;;;;4977206;28;24084;-76
2024/03/27 12:34:44;;;;;;;5.68;4.13;;;;;;;;;;4973177;28;25152;-76
2024/03/27 12:37:10;;;;;;;4.30;3.90;;;;;;;;;;4958550;28;25063;-76
2024/03/27 12:39:37;;;;;;;4.53;4.13;;;;;;;;;;4972928;28;25066;-75
2024/03/27 12:42:06;;;;;;;7.75;4.13;;;;;;;;;;4966413;28;25154;-76
2024/03/27 12:44:32;;;;;;;4.03;3.63;;;;;;;;;;4969478;28;25052;-76
2024/03/27 12:46:58;;;;;;;5.82;4.18;;;;;;;;;;4962004;28;25058;-75
2024/03/27 12:49:24;;;;;;;7.35;4.53;;;;;;;;;;4963044;28;25074;-77
2024/03/27 12:51:50;;;;;;;4.30;3.85;;;;;;;;;;4968518;28;25060;-76
2024/03/27 12:54:16;;;;;;;6.78;4.50;;;;;;;;;;4972300;28;25081;-77
2024/03/27 12:56:42;;;;;;;7.30;3.67;;;;;;;;;;4965594;28;25063;-78
2024/03/27 12:59:08;;;;;;;6.22;3.67;;;;;;;;;;4968386;28;25152;-76
2024/03/27 13:01:34;;;;;;;5.68;4.22;;;;;;;;;;4968796;28;25056;-77
2024/03/27 13:04:01;;;;;;;5.20;3.92;;;;;;;;;;4968585;28;25154;-76
2024/03/27 13:06:27;;;;;;;8.40;4.90;;;;;;;;;;4970723;28;25101;-77
2024/03/27 13:08:53;;;;;;;9.93;4.22;;;;;;;;;;4968519;28;25112;-76
2024/03/27 13:11:20;;;;;;;5.40;4.65;;;;;;;;;;4963235;28;25075;-77
2024/03/27 13:13:46;;;;;;;9.00;4.25;;;;;;;;;;4968270;28;25072;-78
2024/03/27 13:16:12;;;;;;;10.43;3.97;;;;;;;;;;4969358;28;25115;-76
2024/03/27 13:18:38;;;;;;;4.47;4.05;;;;;;;;;;4968347;28;25070;-76
2024/03/27 13:21:07;;;;;;;7.97;4.10;;;;;;;;;;4959335;28;25068;-76
2024/03/27 13:23:38;;;;;;;7.55;4.53;;;;;;;;;;4969236;28;25084;-77
2024/03/27 13:26:10;;;;;;;6.75;3.92;;;;;;;;;;4964647;28;25067;-76
2024/03/27 13:28:36;;;;;;;6.82;4.53;;;;;;;;;;4982377;28;25053;-76
2024/03/27 13:31:04;;;;;;;9.88;5.05;;;;;;;;;;4956303;28;25075;-77
2024/03/27 13:33:30;;;;;;;8.93;4.82;;;;;;;;;;4958529;28;25085;-77
2024/03/27 13:35:56;;;;;;;6.63;4.50;;;;;;;;;;4966410;28;25077;-78
2024/03/27 13:38:22;;;;;;;5.40;4.13;;;;;;;;;;4964009;28;25052;-77
2024/03/27 13:40:48;;;;;;;9.73;4.03;;;;;;;;;;4964685;28;25060;-77
2024/03/27 13:43:14;;;;;;;14.75;4.85;;;;;;;;;;4961868;28;25062;-75
2024/03/27 13:45:41;;;;;;;7.82;4.60;;;;;;;;;;4975019;28;25162;-76
2024/03/27 13:48:08;;;;;;;5.57;4.30;;;;;;;;;;4961417;28;25137;-77
2024/03/27 13:50:34;;;;;;;10.85;4.78;;;;;;;;;;4971763;28;25067;-76
2024/03/27 13:53:01;;;;;;;7.05;4.53;;;;;;;;;;4983045;28;25091;-77
2024/03/27 13:55:27;;;;;;;5.30;4.15;;;;;;;;;;4975481;28;25068;-77
2024/03/27 13:57:53;;;;;;;6.50;3.70;;;;;;;;;;4966051;28;25146;-77
2024/03/27 14:00:19;;;;;;;5.63;3.75;;;;;;;;;;4977279;28;25064;-76
2024/03/27 14:02:45;;;;;;;4.53;3.30;;;;;;;;;;4971314;28;25100;-75
2024/03/27 14:05:11;;;;;;;6.82;4.13;;;;;;;;;;4981183;28;25064;-77
2024/03/27 14:07:37;;;;;;;7.18;3.80;;;;;;;;;;4984282;28;25055;-77
2024/03/27 14:10:04;;;;;;;8.68;3.53;;;;;;;;;;4987068;28;25105;-76
2024/03/27 14:12:30;;;;;;;8.77;4.03;;;;;;;;;;4984646;28;25077;-77
2024/03/27 14:14:56;;;;;;;5.00;4.00;;;;;;;;;;4989115;28;25055;-78
2024/03/27 14:17:22;;;;;;;4.68;4.28;;;;;;;;;;4987862;28;25058;-78
2024/03/27 14:19:48;;;;;;;4.97;3.72;;;;;;;;;;4994516;28;25060;-78
2024/03/27 14:22:15;;;;;;;3.83;3.10;;;;;;;;;;4987702;28;25096;-77
2024/03/27 14:24:42;;;;;;;5.30;3.60;;;;;;;;;;5002113;28;25060;-76
2024/03/27 14:27:08;;;;;;;5.88;3.42;;;;;;;;;;4997719;28;25078;-78
2024/03/27 14:29:34;;;;;;;4.90;3.30;;;;;;;;;;4997159;28;25065;-77
2024/03/27 14:32:00;;;;;;;4.60;3.40;;;;;;;;;;4984803;28;25082;-78
2024/03/27 14:34:26;;;;;;;8.63;4.15;;;;;;;;;;4990526;28;25089;-79